Time;durP1;ratioP1;P1;durP2;ratioP2;P2;SDS_P1;SDS_P2;PMS_P1;PMS_P2;Temp;Humidity;BMP_temperature;BMP_pressure;BME280_temperature;BME280_humidity;BME280_pressure;Samples;Min_cycle;Max_cycle;Signal;HPM_P1;HPM_P2
2022/02/22 00:02:20;;;;;;;;;;;11.00;72.40;;;;;;5069995;27;83286;-46
2022/02/22 00:04:46;;;;;;;;;;;11.00;72.40;;;;;;5068124;27;86148;-45
2022/02/22 00:07:13;;;;;;;;;;;11.10;72.50;;;;;;5069431;27;82099;-45
2022/02/22 00:09:39;;;;;;;;;;;11.00;72.40;;;;;;5068882;27;83936;-46
2022/02/22 00:12:04;;;;;;;;;;;11.00;72.40;;;;;;5068904;27;83480;-45
2022/02/22 00:14:30;;;;;;;;;;;11.00;72.40;;;;;;5069530;27;82139;-46
2022/02/22 00:16:56;;;;;;;;;;;11.00;72.40;;;;;;5069273;27;84093;-46
2022/02/22 00:19:22;;;;;;;;;;;11.00;72.40;;;;;;5071863;27;83594;-47
2022/02/22 00:21:48;;;;;;;;;;;11.00;72.50;;;;;;5069416;27;83981;-46
2022/02/22 00:24:13;;;;;;;;;;;11.00;72.50;;;;;;5068943;27;83667;-47
2022/02/22 00:26:39;;;;;;;;;;;11.00;72.40;;;;;;5069836;27;81471;-46
2022/02/22 00:29:04;;;;;;;;;;;11.00;72.50;;;;;;5069306;27;83212;-46
2022/02/22 00:31:30;;;;;;;;;;;11.00;72.50;;;;;;5068907;27;84685;-47
2022/02/22 00:33:55;;;;;;;;;;;11.00;72.50;;;;;;5068447;27;83078;-46
2022/02/22 00:36:21;;;;;;;;;;;11.00;72.50;;;;;;5069043;27;84963;-47
2022/02/22 00:38:49;;;;;;;;;;;11.00;72.50;;;;;;5068126;27;84333;-45
2022/02/22 00:41:16;;;;;;;;;;;11.00;72.50;;;;;;5071788;27;82000;-47
2022/02/22 00:43:41;;;;;;;;;;;11.00;72.50;;;;;;5068696;27;84230;-45
2022/02/22 00:46:07;;;;;;;;;;;11.00;72.60;;;;;;5069028;27;82080;-45
2022/02/22 00:48:32;;;;;;;;;;;11.00;72.50;;;;;;5068836;27;82965;-45
2022/02/22 00:50:58;;;;;;;;;;;11.00;72.50;;;;;;5069028;27;83288;-46
2022/02/22 00:53:23;;;;;;;;;;;10.90;72.50;;;;;;5068862;27;82163;-45
2022/02/22 00:55:49;;;;;;;;;;;11.00;72.60;;;;;;5068931;27;83929;-47
2022/02/22 00:58:14;;;;;;;;;;;11.00;72.60;;;;;;5068024;27;84108;-45
2022/02/22 01:00:40;;;;;;;;;;;11.00;72.60;;;;;;5068671;27;82121;-46
2022/02/22 01:03:05;;;;;;;;;;;10.90;72.60;;;;;;5071216;27;84188;-46
2022/02/22 01:05:31;;;;;;;;;;;10.90;72.60;;;;;;5068783;27;82159;-46
2022/02/22 01:07:56;;;;;;;;;;;10.90;72.60;;;;;;5068340;27;84002;-47
2022/02/22 01:10:22;;;;;;;;;;;10.90;72.60;;;;;;5068600;27;84432;-45
2022/02/22 01:12:48;;;;;;;;;;;10.90;72.60;;;;;;5068482;27;82128;-45
2022/02/22 01:15:13;;;;;;;;;;;10.90;72.60;;;;;;5068959;27;84040;-46
2022/02/22 01:17:39;;;;;;;;;;;10.90;72.70;;;;;;5068191;27;83453;-47
2022/02/22 01:20:07;;;;;;;;;;;10.90;72.60;;;;;;5068170;27;81720;-46
2022/02/22 01:22:33;;;;;;;;;;;10.90;72.70;;;;;;5069810;27;84018;-45
2022/02/22 01:24:59;;;;;;;;;;;10.90;72.70;;;;;;5067754;27;82071;-45
2022/02/22 01:27:24;;;;;;;;;;;10.90;72.70;;;;;;5068132;27;83794;-45
2022/02/22 01:29:50;;;;;;;;;;;10.90;73.30;;;;;;5068199;27;83756;-45
2022/02/22 01:32:16;;;;;;;;;;;10.90;72.70;;;;;;5068311;27;81753;-46
2022/02/22 01:34:41;;;;;;;;;;;10.90;72.70;;;;;;5068384;27;84082;-45
2022/02/22 01:37:07;;;;;;;;;;;10.90;72.70;;;;;;5067886;27;83656;-45
2022/02/22 01:39:32;;;;;;;;;;;10.90;72.70;;;;;;5066406;27;81619;-45
2022/02/22 01:42:00;;;;;;;;;;;10.90;72.70;;;;;;5068051;27;83827;-45
2022/02/22 01:44:25;;;;;;;;;;;10.90;72.80;;;;;;5070552;27;84398;-45
2022/02/22 01:46:55;;;;;;;;;;;10.80;72.70;;;;;;5067394;27;84195;-45
2022/02/22 01:49:20;;;;;;;;;;;10.80;72.80;;;;;;5067729;27;84278;-45
2022/02/22 01:51:46;;;;;;;;;;;10.80;72.80;;;;;;5067818;27;82204;-46
2022/02/22 01:54:11;;;;;;;;;;;10.80;72.80;;;;;;5067694;27;83190;-46
2022/02/22 01:56:37;;;;;;;;;;;10.80;72.80;;;;;;5067771;27;83666;-46
2022/02/22 01:59:03;;;;;;;;;;;10.80;72.80;;;;;;5067576;27;81986;-47
2022/02/22 02:01:28;;;;;;;;;;;10.80;72.80;;;;;;5067897;27;83244;-46
2022/02/22 02:03:54;;;;;;;;;;;10.80;72.80;;;;;;5068110;27;84197;-47
2022/02/22 02:06:20;;;;;;;;;;;10.80;72.80;;;;;;5070480;27;82048;-45
2022/02/22 02:08:45;;;;;;;;;;;10.80;72.90;;;;;;5067169;27;84085;-45
2022/02/22 02:11:11;;;;;;;;;;;10.80;72.90;;;;;;5066928;27;82995;-45
2022/02/22 02:13:36;;;;;;;;;;;10.80;72.90;;;;;;5067543;27;85167;-45
2022/02/22 02:16:03;;;;;;;;;;;10.80;72.90;;;;;;5067388;27;83471;-45
2022/02/22 02:18:29;;;;;;;;;;;10.80;72.90;;;;;;5067333;27;82092;-45
2022/02/22 02:20:54;;;;;;;;;;;10.80;72.90;;;;;;5067423;27;84418;-45
2022/02/22 02:23:20;;;;;;;;;;;10.80;72.90;;;;;;5067207;27;84678;-46
2022/02/22 02:25:46;;;;;;;;;;;10.80;72.90;;;;;;5067568;27;82009;-46
2022/02/22 02:28:12;;;;;;;;;;;10.80;72.90;;;;;;5070339;27;84084;-46
2022/02/22 02:30:37;;;;;;;;;;;10.80;72.90;;;;;;5067387;27;82003;-45
2022/02/22 02:33:03;;;;;;;;;;;10.80;72.90;;;;;;5067177;27;84126;-45
2022/02/22 02:35:28;;;;;;;;;;;10.80;72.90;;;;;;5066137;27;85503;-45
2022/02/22 02:37:54;;;;;;;;;;;10.80;72.90;;;;;;5067044;27;81989;-46
2022/02/22 02:40:19;;;;;;;;;;;10.70;72.90;;;;;;5066402;27;83061;-46
2022/02/22 02:42:45;;;;;;;;;;;10.80;73.00;;;;;;5066891;27;84516;-46
2022/02/22 02:45:11;;;;;;;;;;;10.70;73.00;;;;;;5067002;27;82140;-45
2022/02/22 02:47:37;;;;;;;;;;;10.70;73.00;;;;;;5067122;27;83876;-45
2022/02/22 02:50:06;;;;;;;;;;;10.70;72.90;;;;;;5069731;27;84286;-46
2022/02/22 02:52:32;;;;;;;;;;;10.70;73.00;;;;;;5067367;27;84053;-45
2022/02/22 02:54:57;;;;;;;;;;;10.70;73.00;;;;;;5066803;27;83655;-46
2022/02/22 02:57:23;;;;;;;;;;;10.70;73.00;;;;;;5067016;27;82199;-45
2022/02/22 02:59:48;;;;;;;;;;;10.70;73.00;;;;;;5066385;27;83855;-46
2022/02/22 03:02:14;;;;;;;;;;;10.70;73.00;;;;;;5066798;27;84776;-51
2022/02/22 03:04:40;;;;;;;;;;;10.70;73.10;;;;;;5066924;27;82037;-45
2022/02/22 03:07:05;;;;;;;;;;;10.70;73.10;;;;;;5066696;27;84093;-45
2022/02/22 03:09:31;;;;;;;;;;;10.70;73.10;;;;;;5066752;27;84604;-45
2022/02/22 03:11:56;;;;;;;;;;;10.70;73.10;;;;;;5069532;27;81674;-44
2022/02/22 03:14:22;;;;;;;;;;;10.70;73.10;;;;;;5066982;27;83279;-46
2022/02/22 03:16:48;;;;;;;;;;;10.70;73.10;;;;;;5067344;27;81287;-45
2022/02/22 03:19:14;;;;;;;;;;;10.70;73.10;;;;;;5066732;27;83135;-45
2022/02/22 03:21:39;;;;;;;;;;;10.70;73.10;;;;;;5066452;27;84590;-45
2022/02/22 03:24:05;;;;;;;;;;;10.70;73.10;;;;;;5065961;27;83018;-45
2022/02/22 03:26:31;;;;;;;;;;;10.70;73.10;;;;;;5066670;27;84064;-45
2022/02/22 03:28:58;;;;;;;;;;;10.70;73.10;;;;;;5066425;27;83925;-45
2022/02/22 03:31:24;;;;;;;;;;;10.60;73.10;;;;;;5069395;27;82040;-44
2022/02/22 03:33:52;;;;;;;;;;;10.60;73.10;;;;;;5066578;27;83606;-45
2022/02/22 03:36:21;;;;;;;;;;;10.70;73.20;;;;;;5066292;27;82094;-45
2022/02/22 03:38:47;;;;;;;;;;;10.60;73.80;;;;;;5065987;27;84116;-46
2022/02/22 03:41:13;;;;;;;;;;;10.60;73.20;;;;;;5066603;27;83856;-45
2022/02/22 03:43:38;;;;;;;;;;;10.60;73.20;;;;;;5066397;27;82037;-45
2022/02/22 03:46:04;;;;;;;;;;;10.60;73.20;;;;;;5066490;27;83817;-44
2022/02/22 03:48:29;;;;;;;;;;;10.60;73.20;;;;;;5069072;27;85847;-46
2022/02/22 03:50:55;;;;;;;;;;;10.60;73.20;;;;;;5069927;27;82060;-45
2022/02/22 03:53:20;;;;;;;;;;;10.60;73.20;;;;;;5072277;27;82951;-46
2022/02/22 03:55:47;;;;;;;;;;;10.60;73.20;;;;;;5068711;27;81999;-45
2022/02/22 03:58:12;;;;;;;;;;;10.60;73.20;;;;;;5069736;27;83243;-45
2022/02/22 04:00:38;;;;;;;;;;;10.60;73.20;;;;;;5069407;27;84174;-46
2022/02/22 04:03:04;;;;;;;;;;;10.60;73.30;;;;;;5069505;27;82143;-45
2022/02/22 04:05:29;;;;;;;;;;;10.60;73.30;;;;;;5070112;27;84154;-45
2022/02/22 04:07:55;;;;;;;;;;;10.60;73.30;;;;;;5069239;27;84402;-45
2022/02/22 04:10:21;;;;;;;;;;;10.50;73.30;;;;;;5069517;27;82190;-45
2022/02/22 04:12:47;;;;;;;;;;;10.50;73.30;;;;;;5068788;27;83784;-46
2022/02/22 04:15:12;;;;;;;;;;;10.60;73.40;;;;;;5072108;27;84613;-45
2022/02/22 04:17:38;;;;;;;;;;;10.50;73.40;;;;;;5069494;27;83967;-45
2022/02/22 04:20:04;;;;;;;;;;;10.50;73.40;;;;;;5069116;27;84512;-45
2022/02/22 04:22:30;;;;;;;;;;;10.50;73.30;;;;;;5069104;27;82092;-45
2022/02/22 04:24:56;;;;;;;;;;;10.50;73.30;;;;;;5069217;27;83930;-45
2022/02/22 04:27:21;;;;;;;;;;;10.50;73.30;;;;;;5069138;27;84030;-45
2022/02/22 04:29:47;;;;;;;;;;;10.50;73.30;;;;;;5069588;27;81382;-45
2022/02/22 04:32:12;;;;;;;;;;;10.50;73.40;;;;;;5069217;27;83608;-46
2022/02/22 04:34:38;;;;;;;;;;;10.50;73.40;;;;;;5068989;27;84469;-45
2022/02/22 04:37:04;;;;;;;;;;;10.50;73.40;;;;;;5071110;27;82840;-46
2022/02/22 04:39:29;;;;;;;;;;;10.50;73.40;;;;;;5068258;27;84909;-45
2022/02/22 04:41:55;;;;;;;;;;;10.50;73.40;;;;;;5069010;27;82259;-46
2022/02/22 04:44:21;;;;;;;;;;;10.50;73.40;;;;;;5069118;27;83901;-46
2022/02/22 04:46:46;;;;;;;;;;;10.50;73.40;;;;;;5068780;27;84582;-45
2022/02/22 04:49:12;;;;;;;;;;;10.50;73.40;;;;;;5068954;27;81862;-45
2022/02/22 04:51:39;;;;;;;;;;;10.50;73.50;;;;;;5068760;27;83905;-45
2022/02/22 04:54:05;;;;;;;;;;;10.40;73.40;;;;;;5069080;27;83958;-45
2022/02/22 04:56:31;;;;;;;;;;;10.40;73.50;;;;;;5068939;27;82088;-45
2022/02/22 04:58:56;;;;;;;;;;;10.40;73.50;;;;;;5071479;27;84050;-45
2022/02/22 05:01:22;;;;;;;;;;;10.40;73.50;;;;;;5067946;27;82955;-46
2022/02/22 05:03:48;;;;;;;;;;;10.40;73.50;;;;;;5068719;27;84647;-44
2022/02/22 05:06:13;;;;;;;;;;;10.40;73.50;;;;;;5068337;27;83890;-45
2022/02/22 05:08:39;;;;;;;;;;;10.40;73.50;;;;;;5068603;27;81860;-45
2022/02/22 05:11:05;;;;;;;;;;;10.40;73.50;;;;;;5068618;27;84099;-45
2022/02/22 05:13:30;;;;;;;;;;;10.40;73.50;;;;;;5068530;27;83478;-45
2022/02/22 05:15:56;;;;;;;;;;;10.40;73.50;;;;;;5068596;27;82108;-45
2022/02/22 05:18:21;;;;;;;;;;;10.40;73.50;;;;;;5071560;27;83068;-45
2022/02/22 05:20:55;;;;;;;;;;;10.40;73.50;;;;;;5068409;27;82078;-45
2022/02/22 05:23:21;;;;;;;;;;;10.40;73.50;;;;;;5068730;27;83957;-45
2022/02/22 05:25:46;;;;;;;;;;;10.40;73.50;;;;;;5067526;27;85451;-44
2022/02/22 05:28:12;;;;;;;;;;;10.40;73.50;;;;;;5068169;27;82043;-44
2022/02/22 05:30:38;;;;;;;;;;;10.40;73.60;;;;;;5068402;27;84072;-44
2022/02/22 05:33:03;;;;;;;;;;;10.40;73.50;;;;;;5067967;27;84684;-44
2022/02/22 05:35:29;;;;;;;;;;;10.30;73.50;;;;;;5068141;27;82128;-44
2022/02/22 05:37:54;;;;;;;;;;;10.30;73.50;;;;;;5068282;27;83719;-44
2022/02/22 05:40:20;;;;;;;;;;;10.30;73.50;;;;;;5069981;27;84584;-44
2022/02/22 05:42:45;;;;;;;;;;;10.30;73.50;;;;;;5068541;27;84659;-44
2022/02/22 05:45:11;;;;;;;;;;;10.30;73.50;;;;;;5067802;27;83709;-45
2022/02/22 05:47:37;;;;;;;;;;;10.30;73.60;;;;;;5068052;27;82074;-44
2022/02/22 05:50:02;;;;;;;;;;;10.30;73.50;;;;;;5067298;27;84588;-44
2022/02/22 05:52:28;;;;;;;;;;;10.30;73.50;;;;;;5067637;27;83604;-44
2022/02/22 05:54:54;;;;;;;;;;;10.40;73.60;;;;;;5068089;27;82074;-44
2022/02/22 05:57:19;;;;;;;;;;;10.30;73.60;;;;;;5067797;27;83792;-44
2022/02/22 05:59:45;;;;;;;;;;;10.30;74.10;;;;;;5067781;27;84805;-44
2022/02/22 06:02:10;;;;;;;;;;;10.30;73.60;;;;;;5070594;27;82087;-44
2022/02/22 06:04:36;;;;;;;;;;;10.30;73.60;;;;;;5067531;27;84413;-44
2022/02/22 06:07:01;;;;;;;;;;;10.30;73.60;;;;;;5067770;27;81240;-44
2022/02/22 06:09:27;;;;;;;;;;;10.30;73.60;;;;;;5067475;27;83356;-44
2022/02/22 06:11:52;;;;;;;;;;;10.30;73.60;;;;;;5067428;27;84370;-44
2022/02/22 06:14:18;;;;;;;;;;;10.30;73.60;;;;;;5067072;27;82907;-44
2022/02/22 06:16:43;;;;;;;;;;;10.20;73.60;;;;;;5067482;27;85249;-44
2022/02/22 06:19:09;;;;;;;;;;;10.30;73.60;;;;;;5067474;27;84618;-44
2022/02/22 06:21:34;;;;;;;;;;;10.20;73.60;;;;;;5067307;27;82043;-44
2022/02/22 06:24:00;;;;;;;;;;;10.20;73.60;;;;;;5070110;27;84030;-44
2022/02/22 06:26:25;;;;;;;;;;;10.20;73.60;;;;;;5067244;27;82070;-44
2022/02/22 06:28:51;;;;;;;;;;;10.20;73.70;;;;;;5067355;27;83902;-44
2022/02/22 06:31:17;;;;;;;;;;;10.20;73.70;;;;;;5067651;27;83805;-44
2022/02/22 06:33:42;;;;;;;;;;;10.20;73.60;;;;;;5067247;27;82132;-44
2022/02/22 06:36:08;;;;;;;;;;;10.20;73.60;;;;;;5067300;27;84136;-44
2022/02/22 06:38:33;;;;;;;;;;;10.20;73.60;;;;;;5066122;27;84619;-45
2022/02/22 06:40:59;;;;;;;;;;;10.20;73.60;;;;;;5067080;27;81848;-44
2022/02/22 06:43:24;;;;;;;;;;;10.20;73.60;;;;;;5067243;27;82979;-44
2022/02/22 06:45:50;;;;;;;;;;;10.20;73.70;;;;;;5069814;27;84697;-44
2022/02/22 06:48:16;;;;;;;;;;;10.20;73.70;;;;;;5067198;27;83837;-44
2022/02/22 06:50:42;;;;;;;;;;;10.20;73.60;;;;;;5066886;27;84105;-44
2022/02/22 06:53:07;;;;;;;;;;;10.20;73.70;;;;;;5066961;27;82115;-44
2022/02/22 06:55:33;;;;;;;;;;;10.20;73.70;;;;;;5067595;27;83878;-44
2022/02/22 06:58:06;;;;;;;;;;;10.20;73.60;;;;;;5066888;27;84521;-44
2022/02/22 07:00:43;;;;;;;;;;;10.20;73.50;;;;;;5066879;27;82135;-44
2022/02/22 07:03:09;;;;;;;;;;;10.20;73.60;;;;;;5066380;27;83827;-44
2022/02/22 07:05:35;;;;;;;;;;;10.20;73.60;;;;;;5066562;27;83402;-44
2022/02/22 07:08:00;;;;;;;;;;;10.20;73.50;;;;;;5069641;27;82092;-44
2022/02/22 07:10:27;;;;;;;;;;;10.20;73.50;;;;;;5066728;27;84402;-44
2022/02/22 07:12:53;;;;;;;;;;;10.20;73.50;;;;;;5066909;27;81830;-44
2022/02/22 07:15:18;;;;;;;;;;;10.20;73.50;;;;;;5066837;27;84206;-44
2022/02/22 07:17:51;;;;;;;;;;;10.20;73.50;;;;;;5066570;27;84545;-45
2022/02/22 07:20:17;;;;;;;;;;;10.20;73.50;;;;;;5066960;27;81193;-44
2022/02/22 07:22:44;;;;;;;;;;;10.20;74.10;;;;;;5068999;27;83292;-44
2022/02/22 07:25:10;;;;;;;;;;;10.20;73.50;;;;;;5070358;27;84309;-44
2022/02/22 07:27:36;;;;;;;;;;;10.20;73.50;;;;;;5072721;27;82948;-44
2022/02/22 07:30:03;;;;;;;;;;;10.20;73.50;;;;;;5070211;27;84614;-44
2022/02/22 07:32:28;;;;;;;;;;;10.20;73.50;;;;;;5069984;27;82069;-45
2022/02/22 07:34:54;;;;;;;;;;;10.20;73.40;;;;;;5069929;27;83852;-45
2022/02/22 07:37:19;;;;;;;;;;;10.20;73.50;;;;;;5069835;27;84325;-44
2022/02/22 07:39:45;;;;;;;;;;;10.20;73.50;;;;;;5069587;27;82073;-44
2022/02/22 07:42:10;;;;;;;;;;;10.20;73.40;;;;;;5070031;27;82716;-44
2022/02/22 07:44:36;;;;;;;;;;;10.20;73.40;;;;;;5070373;27;84156;-45
2022/02/22 07:47:01;;;;;;;;;;;10.20;73.40;;;;;;5069969;27;81969;-44
2022/02/22 07:49:27;;;;;;;;;;;10.20;73.40;;;;;;5072180;27;83550;-44
2022/02/22 07:51:52;;;;;;;;;;;10.20;73.40;;;;;;5069036;27;83059;-44
2022/02/22 07:54:18;;;;;;;;;;;10.20;73.50;;;;;;5069982;27;85135;-44
2022/02/22 07:56:44;;;;;;;;;;;10.20;73.50;;;;;;5069509;27;84623;-44
2022/02/22 07:59:09;;;;;;;;;;;10.20;73.50;;;;;;5069736;27;82091;-44
2022/02/22 08:01:35;;;;;;;;;;;10.20;73.50;;;;;;5069743;27;83869;-44
2022/02/22 08:04:00;;;;;;;;;;;10.20;73.50;;;;;;5069168;27;84738;-44
2022/02/22 08:06:26;;;;;;;;;;;10.20;73.60;;;;;;5069785;27;81975;-45
2022/02/22 08:08:51;;;;;;;;;;;10.10;73.60;;;;;;5069995;27;83986;-44
2022/02/22 08:11:17;;;;;;;;;;;10.10;73.70;;;;;;5072023;27;85020;-44
2022/02/22 08:13:43;;;;;;;;;;;10.10;73.70;;;;;;5069420;27;84138;-44
2022/02/22 08:16:08;;;;;;;;;;;10.10;73.80;;;;;;5068757;27;85321;-44
2022/02/22 08:18:34;;;;;;;;;;;10.10;73.70;;;;;;5069447;27;81940;-44
2022/02/22 08:20:59;;;;;;;;;;;10.10;73.80;;;;;;5069183;27;83727;-44
2022/02/22 08:23:27;;;;;;;;;;;10.10;73.80;;;;;;5069157;27;84449;-44
2022/02/22 08:25:52;;;;;;;;;;;10.10;73.80;;;;;;5069353;27;82081;-44
2022/02/22 08:28:18;;;;;;;;;;;10.10;74.30;;;;;;5069195;27;83954;-44
2022/02/22 08:30:43;;;;;;;;;;;10.10;73.70;;;;;;5069085;27;83304;-44
2022/02/22 08:33:09;;;;;;;;;;;10.10;73.80;;;;;;5071977;27;81140;-44
2022/02/22 08:35:35;;;;;;;;;;;10.10;73.80;;;;;;5068851;27;84584;-44
2022/02/22 08:38:01;;;;;;;;;;;10.10;73.90;;;;;;5069091;27;82107;-44
2022/02/22 08:40:27;;;;;;;;;;;10.10;74.00;;;;;;5067965;27;83681;-44
2022/02/22 08:42:52;;;;;;;;;;;10.00;74.00;;;;;;5068770;27;83221;-44
2022/02/22 08:45:18;;;;;;;;;;;10.10;74.00;;;;;;5069063;27;81926;-44
2022/02/22 08:47:43;;;;;;;;;;;10.10;74.00;;;;;;5069205;27;82754;-44
2022/02/22 08:50:09;;;;;;;;;;;10.10;74.10;;;;;;5068764;27;84320;-44
2022/02/22 08:52:34;;;;;;;;;;;10.00;74.10;;;;;;5068714;27;82133;-44
2022/02/22 08:55:00;;;;;;;;;;;10.10;74.10;;;;;;5071594;27;83920;-44
2022/02/22 08:57:27;;;;;;;;;;;10.10;74.10;;;;;;5069240;27;81356;-44
2022/02/22 08:59:53;;;;;;;;;;;10.10;74.00;;;;;;5068739;27;83487;-44
2022/02/22 09:02:18;;;;;;;;;;;10.10;74.00;;;;;;5068574;27;84664;-44
2022/02/22 09:04:44;;;;;;;;;;;10.10;74.00;;;;;;5067930;27;82915;-44
2022/02/22 09:07:09;;;;;;;;;;;10.00;74.00;;;;;;5068610;27;85159;-44
2022/02/22 09:09:35;;;;;;;;;;;10.00;74.00;;;;;;5068412;27;84592;-44
2022/02/22 09:12:01;;;;;;;;;;;10.00;74.00;;;;;;5068633;27;81917;-44
2022/02/22 09:14:27;;;;;;;;;;;10.00;74.00;;;;;;5068433;27;83060;-44
2022/02/22 09:16:52;;;;;;;;;;;10.00;74.10;;;;;;5071118;27;84603;-45
2022/02/22 09:19:18;;;;;;;;;;;10.00;74.10;;;;;;5068281;27;83798;-44
2022/02/22 09:21:43;;;;;;;;;;;10.00;74.80;;;;;;5068660;27;83687;-44
2022/02/22 09:24:09;;;;;;;;;;;10.00;74.20;;;;;;5068541;27;82130;-44
2022/02/22 09:26:34;;;;;;;;;;;10.00;74.30;;;;;;5068438;27;83798;-44
2022/02/22 09:29:00;;;;;;;;;;;10.00;74.30;;;;;;5067363;27;85628;-43
2022/02/22 09:31:25;;;;;;;;;;;10.00;74.30;;;;;;5068251;27;81695;-44
2022/02/22 09:33:51;;;;;;;;;;;10.00;74.20;;;;;;5068321;27;83158;-43
2022/02/22 09:36:17;;;;;;;;;;;10.00;74.80;;;;;;5070558;27;84482;-43
2022/02/22 09:38:42;;;;;;;;;;;10.00;74.30;;;;;;5067769;27;83952;-43
2022/02/22 09:41:08;;;;;;;;;;;10.00;74.30;;;;;;5068036;27;84130;-43
2022/02/22 09:43:34;;;;;;;;;;;10.00;74.30;;;;;;5068080;27;82042;-43
2022/02/22 09:46:00;;;;;;;;;;;9.90;74.30;;;;;;5068115;27;84209;-43
2022/02/22 09:48:26;;;;;;;;;;;10.00;74.30;;;;;;5067683;27;84539;-43
2022/02/22 09:50:52;;;;;;;;;;;9.90;74.30;;;;;;5068265;27;82072;-43
2022/02/22 09:53:17;;;;;;;;;;;9.90;74.30;;;;;;5067354;27;84170;-43
2022/02/22 09:55:43;;;;;;;;;;;9.90;74.30;;;;;;5067893;27;83698;-43
2022/02/22 09:58:08;;;;;;;;;;;9.90;74.30;;;;;;5070800;27;81773;-43
2022/02/22 10:00:35;;;;;;;;;;;9.90;74.30;;;;;;5067507;27;84636;-43
2022/02/22 10:03:01;;;;;;;;;;;9.90;74.30;;;;;;5067775;27;81890;-43
2022/02/22 10:05:27;;;;;;;;;;;9.90;74.30;;;;;;5067592;27;83997;-43
2022/02/22 10:07:56;;;;;;;;;;;9.90;74.30;;;;;;5067615;27;84374;-43
2022/02/22 10:10:38;;;;;;;;;;;9.90;74.30;;;;;;5068210;27;81214;-43
2022/02/22 10:13:05;;;;;;;;;;;9.90;74.30;;;;;;5067584;27;82231;-43
2022/02/22 10:15:41;;;;;;;;;;;9.90;74.30;;;;;;5067427;27;84560;-43
2022/02/22 10:18:07;;;;;;;;;;;9.90;74.30;;;;;;5066882;27;83016;-43
2022/02/22 10:20:33;;;;;;;;;;;9.80;74.20;;;;;;5070003;27;84794;-43
2022/02/22 10:23:00;;;;;;;;;;;9.80;74.20;;;;;;5067339;27;81960;-43
2022/02/22 10:25:26;;;;;;;;;;;9.80;74.30;;;;;;5067530;27;83818;-43
2022/02/22 10:27:58;;;;;;;;;;;9.80;74.40;;;;;;5067080;27;84546;-43
2022/02/22 10:30:27;;;;;;;;;;;9.80;74.20;;;;;;5067243;27;81965;-43
2022/02/22 10:32:52;;;;;;;;;;;9.80;74.30;;;;;;5067338;27;82708;-43
2022/02/22 10:35:31;;;;;;;;;;;9.80;74.30;;;;;;5067896;27;83646;-43
2022/02/22 10:37:57;;;;;;;;;;;9.80;74.30;;;;;;5067155;27;81700;-43
2022/02/22 10:40:26;;;;;;;;;;;9.80;74.20;;;;;;5067005;27;84198;-43
2022/02/22 10:42:52;;;;;;;;;;;9.80;74.30;;;;;;5069153;27;85390;-43
2022/02/22 10:45:20;;;;;;;;;;;9.70;74.30;;;;;;5067163;27;83977;-43
2022/02/22 10:47:45;;;;;;;;;;;9.70;74.30;;;;;;5067003;27;83835;-43
2022/02/22 10:50:11;;;;;;;;;;;9.70;74.20;;;;;;5067057;27;82104;-43
2022/02/22 10:52:37;;;;;;;;;;;9.70;74.30;;;;;;5067109;27;83901;-43
2022/02/22 10:55:02;;;;;;;;;;;9.70;74.30;;;;;;5067002;27;84301;-43
2022/02/22 10:57:28;;;;;;;;;;;9.70;74.50;;;;;;5070388;27;82012;-43
2022/02/22 10:59:54;;;;;;;;;;;9.70;74.50;;;;;;5071267;27;82873;-42
2022/02/22 11:02:19;;;;;;;;;;;9.70;74.40;;;;;;5070364;27;84350;-43
2022/02/22 11:04:45;;;;;;;;;;;9.70;74.50;;;;;;5073248;27;82054;-43
2022/02/22 11:07:16;;;;;;;;;;;9.70;74.30;;;;;;5069749;27;85037;-43
2022/02/22 11:09:43;;;;;;;;;;;9.70;74.30;;;;;;5070626;27;81858;-43
2022/02/22 11:12:16;;;;;;;;;;;9.60;74.40;;;;;;5070447;27;83943;-43
2022/02/22 11:14:42;;;;;;;;;;;9.60;74.40;;;;;;5070351;27;84480;-43
2022/02/22 11:17:18;;;;;;;;;;;9.60;74.30;;;;;;5070434;27;82126;-43
2022/02/22 11:19:45;;;;;;;;;;;9.60;74.40;;;;;;5070281;27;83871;-44
2022/02/22 11:22:23;;;;;;;;;;;9.60;74.40;;;;;;5070167;27;84167;-44
2022/02/22 11:24:49;;;;;;;;;;;9.60;74.50;;;;;;5070568;27;81110;-43
2022/02/22 11:27:35;;;;;;;;;;;9.50;74.50;;;;;;5072888;27;82369;-43
2022/02/22 11:30:07;;;;;;;;;;;9.50;74.40;;;;;;5070334;27;81880;-43
2022/02/22 11:32:33;;;;;;;;;;;9.50;74.40;;;;;;5069600;27;82816;-43
2022/02/22 11:35:08;;;;;;;;;;;9.50;74.40;;;;;;5069881;27;84468;-43
2022/02/22 11:37:34;;;;;;;;;;;9.50;74.40;;;;;;5070247;27;81796;-43
2022/02/22 11:39:59;;;;;;;;;;;9.50;74.30;;;;;;5069499;27;83598;-43
2022/02/22 11:42:30;;;;;;;;;;;9.50;74.30;;;;;;5069829;27;84718;-43
2022/02/22 11:45:06;;;;;;;;;;;9.50;74.30;;;;;;5070158;27;81913;-43
2022/02/22 11:47:32;;;;;;;;;;;9.50;74.30;;;;;;5072375;27;85035;-43
2022/02/22 11:49:58;;;;;;;;;;;9.50;74.30;;;;;;5070350;27;80958;-45
2022/02/22 11:52:38;;;;;;;;;;;9.50;74.20;;;;;;5069991;27;83138;-43
2022/02/22 11:55:05;;;;;;;;;;;9.40;74.30;;;;;;5069725;27;83743;-43
2022/02/22 11:57:41;;;;;;;;;;;9.40;74.20;;;;;;5069062;27;82725;-43
2022/02/22 12:00:08;;;;;;;;;;;9.40;74.20;;;;;;5069646;27;84984;-43
2022/02/22 12:02:36;;;;;;;;;;;9.40;74.30;;;;;;5102438;27;84911;-44
2022/02/22 12:05:21;;;;;;;;;;;9.40;74.30;;;;;;5069906;27;82031;-44
2022/02/22 12:07:57;;;;;;;;;;;9.40;74.40;;;;;;5068959;27;83767;-44
2022/02/22 12:10:23;;;;;;;;;;;9.40;74.30;;;;;;5072162;27;84628;-43
2022/02/22 12:12:51;;;;;;;;;;;9.40;74.30;;;;;;5069596;27;84130;-44
2022/02/22 12:15:16;;;;;;;;;;;9.40;74.30;;;;;;5069946;27;83994;-45
2022/02/22 12:17:43;;;;;;;;;;;9.40;74.40;;;;;;5069531;27;82079;-43
2022/02/22 12:20:09;;;;;;;;;;;9.40;74.30;;;;;;5069305;27;84323;-43
2022/02/22 12:22:36;;;;;;;;;;;9.40;74.40;;;;;;5068452;27;85459;-43
2022/02/22 12:25:06;;;;;;;;;;;9.30;74.90;;;;;;5069371;27;82108;-43
2022/02/22 12:27:32;;;;;;;;;;;9.30;74.40;;;;;;5069181;27;85681;-43
2022/02/22 12:29:59;;;;;;;;;;;9.30;74.30;;;;;;5069377;27;84402;-44
2022/02/22 12:32:25;;;;;;;;;;;9.30;74.30;;;;;;5071920;27;81804;-44
2022/02/22 12:34:51;;;;;;;;;;;9.30;74.40;;;;;;5069250;27;83781;-43
2022/02/22 12:37:17;;;;;;;;;;;9.30;74.40;;;;;;5069264;27;82087;-43
2022/02/22 12:39:43;;;;;;;;;;;9.30;74.40;;;;;;5069148;27;84275;-45
2022/02/22 12:42:10;;;;;;;;;;;9.30;74.30;;;;;;5068517;27;84429;-44
2022/02/22 12:44:38;;;;;;;;;;;9.20;74.20;;;;;;5068967;27;82018;-43
2022/02/22 12:47:05;;;;;;;;;;;9.20;74.20;;;;;;5068473;27;83007;-43
2022/02/22 12:49:31;;;;;;;;;;;9.30;74.10;;;;;;5068637;27;84564;-43
2022/02/22 12:51:57;;;;;;;;;;;9.30;74.30;;;;;;5068962;27;82120;-43
2022/02/22 12:54:23;;;;;;;;;;;9.20;74.10;;;;;;5071523;27;84257;-43
2022/02/22 12:56:50;;;;;;;;;;;9.20;74.20;;;;;;5068914;27;82055;-44
2022/02/22 12:59:18;;;;;;;;;;;9.20;74.30;;;;;;5068971;27;83690;-43
2022/02/22 13:01:44;;;;;;;;;;;9.20;74.20;;;;;;5068436;27;85990;-43
2022/02/22 13:04:11;;;;;;;;;;;9.20;74.20;;;;;;5069055;27;81441;-43
2022/02/22 13:06:37;;;;;;;;;;;9.20;74.20;;;;;;5068656;27;83318;-43
2022/02/22 13:09:08;;;;;;;;;;;9.20;74.20;;;;;;5068321;27;84390;-43
2022/02/22 13:11:34;;;;;;;;;;;9.20;74.10;;;;;;5067594;27;83027;-43
2022/02/22 13:14:00;;;;;;;;;;;9.20;74.20;;;;;;5068634;27;85198;-43
2022/02/22 13:16:26;;;;;;;;;;;9.10;74.20;;;;;;5070965;27;84703;-43
2022/02/22 13:19:02;;;;;;;;;;;9.20;74.30;;;;;;5067583;27;83544;-43
2022/02/22 13:21:28;;;;;;;;;;;9.10;74.20;;;;;;5067939;27;84755;-43
2022/02/22 13:23:58;;;;;;;;;;;9.10;74.40;;;;;;5068460;27;82095;-44
2022/02/22 13:26:47;;;;;;;;;;;9.10;74.30;;;;;;5068631;27;84462;-43
2022/02/22 13:29:13;;;;;;;;;;;9.10;74.10;;;;;;5068859;27;82782;-43
2022/02/22 13:31:39;;;;;;;;;;;9.10;74.00;;;;;;5068307;27;81851;-43
2022/02/22 13:34:06;;;;;;;;;;;9.10;74.00;;;;;;5068196;27;84074;-43
2022/02/22 13:36:33;;;;;;;;;;;9.00;74.00;;;;;;5067056;27;84112;-43
2022/02/22 13:38:59;;;;;;;;;;;9.00;74.10;;;;;;5070146;27;81867;-43
2022/02/22 13:41:32;;;;;;;;;;;9.00;74.00;;;;;;5067752;27;83802;-44
2022/02/22 13:43:58;;;;;;;;;;;9.00;73.90;;;;;;5068075;27;81704;-43
2022/02/22 13:46:27;;;;;;;;;;;9.00;73.90;;;;;;5067956;27;82915;-43
2022/02/22 13:48:57;;;;;;;;;;;8.90;74.00;;;;;;5067707;27;84448;-43
2022/02/22 13:51:41;;;;;;;;;;;8.90;73.90;;;;;;5067872;27;81830;-43
2022/02/22 13:54:07;;;;;;;;;;;8.90;73.90;;;;;;5068574;27;82494;-43
2022/02/22 13:56:33;;;;;;;;;;;8.90;73.90;;;;;;5067844;27;84305;-43
2022/02/22 13:59:09;;;;;;;;;;;8.90;73.80;;;;;;5070620;27;81921;-43
2022/02/22 14:01:46;;;;;;;;;;;8.90;73.70;;;;;;5066460;27;85599;-43
2022/02/22 14:04:12;;;;;;;;;;;8.90;73.70;;;;;;5067842;27;81986;-43
2022/02/22 14:06:38;;;;;;;;;;;8.90;73.70;;;;;;5067668;27;84061;-43
2022/02/22 14:09:03;;;;;;;;;;;9.00;73.80;;;;;;5067435;27;84877;-43
2022/02/22 14:11:38;;;;;;;;;;;8.90;73.60;;;;;;5067563;27;81912;-43
2022/02/22 14:14:04;;;;;;;;;;;8.90;73.70;;;;;;5067555;27;84012;-44
2022/02/22 14:16:30;;;;;;;;;;;8.90;73.90;;;;;;5067363;27;84350;-45
2022/02/22 14:18:55;;;;;;;;;;;8.90;74.00;;;;;;5068096;27;81290;-43